createdAt,value
2022-09-26T05:19:06.253Z,14.34
2022-09-26T05:21:37.663Z,14.45
2022-09-26T05:24:23.434Z,14.55
2022-09-26T05:26:52.758Z,14.69
2022-09-26T05:29:21.978Z,14.87
2022-09-26T05:31:56.635Z,15.05
2022-09-26T05:34:27.429Z,15.21
2022-09-26T05:36:56.208Z,15.28
2022-09-26T05:39:42.864Z,15.42
2022-09-26T05:42:16.302Z,15.40
2022-09-26T05:44:46.334Z,15.25
2022-09-26T05:47:14.129Z,15.26
2022-09-26T05:49:41.158Z,15.19
2022-09-26T05:52:11.412Z,15.20
2022-09-26T05:54:39.110Z,15.25
2022-09-26T05:57:25.998Z,15.35
2022-09-26T05:59:55.084Z,15.40
2022-09-26T06:02:39.939Z,15.51
2022-09-26T06:05:16.393Z,15.66
2022-09-26T06:08:02.090Z,15.89
2022-09-26T06:10:59.856Z,15.97
2022-09-26T06:13:27.016Z,16.26
2022-09-26T06:15:54.727Z,16.20
2022-09-26T06:18:21.968Z,16.00
2022-09-26T06:20:50.117Z,16.19
2022-09-26T06:23:17.398Z,16.13
2022-09-26T06:25:46.162Z,16.11
2022-09-26T06:28:13.219Z,16.18
2022-09-26T06:30:40.253Z,16.36
2022-09-26T06:33:22.387Z,16.41
2022-09-26T06:36:02.443Z,16.55
2022-09-26T06:38:35.885Z,16.63
2022-09-26T06:41:04.954Z,16.81
2022-09-26T06:43:32.343Z,17.04
2022-09-26T06:46:17.844Z,17.28
2022-09-26T06:48:50.897Z,17.44
2022-09-26T06:51:49.201Z,17.52
2022-09-26T06:54:17.538Z,17.66
2022-09-26T06:56:44.668Z,17.80
2022-09-26T06:59:12.295Z,17.88
2022-09-26T07:01:49.131Z,17.93
2022-09-26T07:04:36.074Z,17.96
2022-09-26T07:07:28.129Z,18.09
2022-09-26T07:09:56.392Z,18.04
2022-09-26T07:12:44.265Z,18.14
2022-09-26T07:15:15.756Z,18.22
2022-09-26T07:17:57.229Z,18.21
2022-09-26T07:20:56.822Z,18.28
2022-09-26T07:23:36.654Z,18.44
2022-09-26T07:26:03.733Z,18.51
2022-09-26T07:28:31.428Z,18.56
2022-09-26T07:30:59.837Z,18.57
2022-09-26T07:33:45.385Z,18.56
2022-09-26T07:36:12.468Z,18.56
2022-09-26T07:38:44.034Z,18.62
2022-09-26T07:41:11.408Z,18.66
2022-09-26T07:44:19.206Z,18.81
2022-09-26T07:46:46.082Z,18.99
2022-09-26T07:49:32.805Z,19.09
2022-09-26T07:52:22.314Z,19.09
2022-09-26T07:55:28.480Z,19.31
2022-09-26T07:58:26.066Z,19.20
2022-09-26T08:01:15.156Z,19.21
2022-09-26T08:04:01.191Z,19.32
2022-09-26T08:06:35.239Z,19.43
2022-09-26T08:09:02.566Z,19.54
2022-09-26T08:11:48.229Z,19.64
2022-09-26T08:14:41.500Z,19.82
2022-09-26T08:17:18.055Z,20.06
2022-09-26T08:19:45.244Z,20.07
2022-09-26T08:22:12.806Z,20.12
2022-09-26T08:24:39.839Z,20.12
2022-09-26T08:27:32.445Z,20.14
2022-09-26T08:29:59.890Z,20.23
2022-09-26T08:32:27.759Z,20.49
2022-09-26T08:34:55.352Z,20.51
2022-09-26T08:37:52.779Z,20.60
2022-09-26T08:40:54.761Z,20.83
2022-09-26T08:44:12.400Z,21.06
2022-09-26T08:47:16.915Z,21.24
2022-09-26T08:50:39.793Z,21.51
2022-09-26T08:53:12.739Z,21.75
2022-09-26T08:55:48.992Z,22.01
2022-09-26T08:58:37.842Z,22.14
2022-09-26T09:01:13.245Z,22.19
2022-09-26T09:04:20.890Z,22.41
2022-09-26T09:07:16.774Z,22.62
2022-09-26T09:09:43.807Z,22.93
2022-09-26T09:12:59.028Z,23.33
2022-09-26T09:16:43.171Z,23.70
2022-09-26T09:19:53.417Z,23.90
2022-09-26T09:23:19.467Z,24.02
2022-09-26T09:29:49.752Z,24.26
2022-09-26T09:52:48.880Z,25.72
2022-09-26T09:56:03.043Z,25.90
2022-09-26T10:08:49.313Z,25.64
2022-09-26T10:16:19.031Z,26.21
2022-09-26T10:19:47.512Z,25.99
2022-09-26T10:22:46.321Z,25.84
2022-09-26T10:26:10.282Z,25.90
2022-09-26T10:29:30.808Z,25.97
2022-09-26T10:39:43.161Z,26.17
2022-09-26T10:42:31.445Z,26.29
2022-09-26T10:45:23.659Z,26.38
2022-09-26T10:52:16.047Z,26.49
2022-09-26T10:55:22.978Z,26.52
2022-09-26T11:01:04.087Z,26.58
2022-09-26T11:03:51.016Z,26.60
2022-09-26T11:07:12.101Z,26.56
2022-09-26T11:10:35.497Z,26.78
2022-09-26T11:14:08.802Z,27.13
2022-09-26T11:17:32.382Z,27.49
2022-09-26T11:40:26.964Z,27.05
2022-09-26T11:47:57.065Z,27.21
2022-09-26T11:51:30.413Z,27.64
2022-09-26T11:54:49.845Z,27.84
2022-09-26T11:58:08.066Z,27.76
2022-09-26T12:38:56.390Z,27.59
2022-09-26T12:48:36.336Z,28.06
2022-09-26T13:32:00.794Z,25.88
2022-09-26T14:13:34.754Z,24.78
2022-09-26T14:16:26.122Z,24.78
2022-09-26T14:19:10.428Z,24.74
2022-09-26T14:22:22.321Z,24.71
2022-09-26T14:24:50.711Z,24.66
2022-09-26T14:28:08.671Z,24.65
2022-09-26T14:30:37.669Z,24.66
2022-09-26T14:33:12.449Z,24.65
2022-09-26T14:35:39.824Z,24.54
2022-09-26T14:38:20.028Z,24.43
2022-09-26T14:40:58.338Z,24.32
2022-09-26T14:43:35.959Z,24.22
2022-09-26T14:46:16.104Z,24.18
2022-09-26T14:48:44.329Z,24.16
2022-09-26T14:51:33.278Z,24.18
2022-09-26T14:54:34.863Z,24.18
2022-09-26T14:57:05.444Z,24.13
2022-09-26T14:59:40.694Z,24.05
2022-09-26T15:02:38.401Z,24.01
2022-09-26T15:05:32.795Z,23.97
2022-09-26T15:08:01.299Z,23.97
2022-09-26T15:10:42.197Z,23.96
2022-09-26T15:13:23.808Z,23.92
2022-09-26T15:15:58.661Z,23.85
2022-09-26T15:18:37.517Z,23.79
2022-09-26T15:21:37.652Z,23.74
2022-09-26T15:24:39.506Z,23.69
2022-09-26T15:27:18.414Z,23.62
2022-09-26T15:29:52.026Z,23.54
2022-09-26T15:32:28.904Z,23.48
2022-09-26T15:34:56.716Z,23.41
2022-09-26T15:37:31.681Z,23.37
2022-09-26T15:40:22.998Z,23.31
2022-09-26T15:43:01.744Z,23.27
2022-09-26T15:45:59.437Z,23.25
2022-09-26T15:48:32.757Z,23.25
2022-09-26T15:51:38.240Z,23.24
2022-09-26T15:54:11.230Z,23.22
2022-09-26T15:56:48.726Z,23.19
2022-09-26T15:59:28.418Z,23.11
2022-09-26T16:01:56.027Z,23.07
2022-09-26T16:04:27.317Z,22.96
2022-09-26T16:07:04.023Z,22.91
2022-09-26T16:09:33.942Z,22.90
2022-09-26T16:12:10.474Z,22.85
2022-09-26T16:15:03.164Z,22.80
2022-09-26T16:17:36.831Z,22.76
2022-09-26T16:20:31.119Z,22.69
2022-09-26T16:23:04.378Z,22.66
2022-09-26T16:25:35.433Z,22.67
2022-09-26T16:28:21.989Z,22.60
2022-09-26T16:31:14.565Z,22.56
2022-09-26T16:33:42.800Z,22.52
2022-09-26T16:36:31.417Z,22.44
2022-09-26T16:39:04.016Z,22.42
2022-09-26T16:44:48.193Z,22.31
2022-09-26T16:47:42.860Z,22.23
2022-09-26T16:50:30.073Z,22.17
2022-09-26T16:52:57.724Z,22.12
2022-09-26T16:55:25.920Z,22.08
2022-09-26T16:57:58.781Z,22.08
2022-09-26T17:00:52.216Z,22.06
2022-09-26T17:03:23.261Z,22.04
2022-09-26T17:08:17.906Z,21.96
2022-09-26T17:10:46.480Z,21.95
2022-09-26T17:13:23.816Z,21.88
2022-09-26T17:15:56.470Z,21.85
2022-09-26T17:18:29.650Z,21.83
2022-09-26T17:20:57.299Z,21.80
2022-09-26T17:23:41.458Z,21.80
2022-09-26T17:26:23.944Z,21.79
2022-09-26T17:28:53.394Z,21.77
2022-09-26T17:31:20.804Z,21.76
2022-09-26T17:33:51.585Z,21.78
2022-09-26T17:36:25.832Z,21.74
2022-09-26T17:38:53.663Z,21.73
2022-09-26T17:41:20.763Z,21.70
2022-09-26T17:43:47.823Z,21.69
2022-09-26T17:46:16.286Z,21.69
2022-09-26T17:48:44.882Z,21.67
2022-09-26T17:51:14.596Z,21.68
2022-09-26T17:53:50.203Z,21.68
2022-09-26T17:56:18.471Z,21.71
2022-09-26T17:58:47.154Z,21.78
2022-09-26T18:01:27.056Z,21.85
2022-09-26T18:03:57.682Z,22.15
2022-09-26T18:06:31.632Z,21.83
2022-09-26T18:09:05.383Z,21.52
2022-09-26T18:11:34.593Z,21.54
2022-09-26T18:14:04.742Z,21.46
2022-09-26T18:16:32.023Z,21.45
2022-09-26T18:19:02.078Z,21.43
2022-09-26T18:21:31.667Z,21.47
2022-09-26T18:24:06.882Z,21.21
2022-09-26T18:26:47.561Z,21.06
2022-09-26T18:29:19.718Z,21.09
2022-09-26T18:31:47.012Z,21.07
2022-09-26T18:34:20.639Z,20.96
2022-09-26T18:36:50.179Z,20.90
2022-09-26T18:39:17.402Z,20.85
2022-09-26T18:41:45.324Z,20.73
2022-09-26T18:44:17.126Z,20.63
2022-09-26T18:46:47.302Z,20.58
2022-09-26T18:49:14.923Z,20.54
2022-09-26T18:51:42.218Z,20.53
2022-09-26T18:54:14.499Z,20.53
2022-09-26T18:57:00.102Z,20.55
2022-09-26T18:59:31.131Z,20.28
2022-09-26T19:01:59.823Z,20.09
2022-09-26T19:04:27.896Z,20.01
2022-09-26T19:07:01.245Z,19.94
2022-09-26T19:09:35.752Z,19.87
2022-09-26T19:12:03.604Z,19.83
2022-09-26T19:14:35.065Z,19.79
2022-09-26T19:17:02.208Z,19.74
2022-09-26T19:19:30.431Z,19.70
2022-09-26T19:22:00.568Z,19.66
2022-09-26T19:25:01.057Z,19.61
2022-09-26T19:27:39.010Z,19.48
2022-09-26T19:30:26.532Z,19.32
2022-09-26T19:32:56.346Z,19.22
2022-09-26T19:35:30.529Z,19.10
2022-09-26T19:38:02.542Z,19.07
2022-09-26T19:40:30.659Z,19.02
2022-09-26T19:43:01.199Z,18.92
2022-09-26T19:45:32.125Z,18.86
2022-09-26T19:47:59.612Z,18.84
2022-09-26T19:50:27.264Z,18.88
2022-09-26T19:52:57.143Z,18.87
2022-09-26T19:55:29.649Z,18.88
2022-09-26T19:58:01.289Z,18.91
2022-09-26T20:00:29.339Z,18.78
2022-09-26T20:02:56.520Z,18.68
2022-09-26T20:05:26.507Z,18.61
2022-09-26T20:07:53.713Z,18.54
2022-09-26T20:10:22.760Z,18.49
2022-09-26T20:12:49.893Z,18.47
2022-09-26T20:15:20.345Z,18.43
2022-09-26T20:17:47.979Z,18.37
2022-09-26T20:20:21.495Z,18.40
2022-09-26T20:22:51.270Z,18.34
2022-09-26T20:25:26.862Z,18.32
2022-09-26T20:27:55.685Z,18.31
2022-09-26T20:30:42.467Z,18.28
2022-09-26T20:33:10.686Z,18.26
2022-09-26T20:35:43.494Z,18.23
2022-09-26T20:38:41.281Z,18.08
2022-09-26T20:41:18.244Z,18.07
2022-09-26T20:43:49.374Z,17.90
2022-09-26T20:46:19.427Z,17.74
2022-09-26T20:48:49.321Z,17.72
2022-09-26T20:51:22.626Z,17.72
2022-09-26T20:53:49.741Z,17.73
2022-09-26T20:56:21.362Z,17.71
2022-09-26T20:58:48.778Z,17.64
2022-09-26T21:01:18.074Z,17.66
2022-09-26T21:03:51.067Z,17.59
2022-09-26T21:06:21.373Z,17.39
2022-09-26T21:08:48.694Z,17.23
2022-09-26T21:11:18.832Z,17.20
2022-09-26T21:13:46.356Z,17.26
2022-09-26T21:16:15.214Z,17.27
2022-09-26T21:18:44.341Z,17.23
2022-09-26T21:21:23.061Z,17.26
2022-09-26T21:24:25.487Z,17.19
2022-09-26T21:26:52.605Z,17.11
2022-09-26T21:29:19.676Z,17.07
2022-09-26T21:31:49.868Z,17.00
2022-09-26T21:34:23.027Z,16.99
2022-09-26T21:36:52.526Z,17.23
2022-09-26T21:39:20.256Z,16.96
2022-09-26T21:41:49.672Z,17.03
2022-09-26T21:44:27.172Z,16.82
2022-09-26T21:46:54.218Z,16.73
2022-09-26T21:49:21.322Z,16.73
2022-09-26T21:51:53.226Z,16.80
2022-09-26T21:54:28.382Z,16.79
2022-09-26T21:57:01.059Z,16.81
2022-09-26T21:59:29.641Z,16.78
2022-09-26T22:01:56.700Z,16.79
2022-09-26T22:04:24.073Z,16.83
2022-09-26T22:06:51.011Z,16.90
2022-09-26T22:09:18.111Z,16.87
2022-09-26T22:11:45.138Z,16.89
2022-09-26T22:14:12.166Z,16.92
2022-09-26T22:16:39.184Z,16.93
2022-09-26T22:19:06.436Z,16.93
2022-09-26T22:21:33.406Z,16.96
2022-09-26T22:24:00.808Z,17.00
2022-09-26T22:26:27.801Z,16.98
2022-09-26T22:28:54.769Z,16.94
2022-09-26T22:31:21.872Z,16.86
2022-09-26T22:33:48.890Z,16.82
2022-09-26T22:36:16.603Z,16.84
2022-09-26T22:38:43.665Z,16.88
2022-09-26T22:41:10.972Z,16.94
2022-09-26T22:43:37.971Z,16.87
2022-09-26T22:46:10.155Z,16.88
2022-09-26T22:48:40.024Z,16.86
2022-09-26T22:51:08.628Z,16.89
2022-09-26T22:53:37.623Z,16.82
2022-09-26T22:56:08.408Z,16.83
2022-09-26T22:58:39.973Z,16.80
2022-09-26T23:01:12.902Z,16.78
2022-09-26T23:03:40.355Z,16.75
2022-09-26T23:06:08.254Z,16.70
2022-09-26T23:08:35.999Z,16.65
2022-09-26T23:11:03.894Z,16.55
2022-09-26T23:13:32.407Z,16.56
2022-09-26T23:16:10.739Z,16.67
2022-09-26T23:18:39.417Z,16.67
2022-09-26T23:21:11.832Z,16.64
2022-09-26T23:23:40.003Z,16.58
2022-09-26T23:26:20.758Z,16.51
2022-09-26T23:28:48.105Z,16.49
2022-09-26T23:31:15.435Z,16.42
2022-09-26T23:33:42.823Z,16.40
2022-09-26T23:36:10.617Z,16.56
2022-09-26T23:38:38.651Z,16.62
2022-09-26T23:41:06.932Z,16.56
2022-09-26T23:43:34.052Z,16.56
2022-09-26T23:46:01.411Z,16.43
2022-09-26T23:48:28.930Z,16.38
2022-09-26T23:50:56.607Z,16.38
2022-09-26T23:53:23.878Z,16.40
2022-09-26T23:55:51.104Z,16.42
2022-09-26T23:58:18.638Z,16.47
